Time;durP1;ratioP1;P1;durP2;ratioP2;P2;SDS_P1;SDS_P2;PMS_P1;PMS_P2;Temp;Humidity;BMP_temperature;BMP_pressure;BME280_temperature;BME280_humidity;BME280_pressure;Samples;Min_cycle;Max_cycle;Signal;HPM_P1;HPM_P2
2023/10/19 00:18:46;;;;;;;;;;;;;;;9.13;100;99187.2;;;;-76
2023/10/19 00:32:32;;;;;;;;;;;;;;;9.59;100;99237.81;;;;-74
2023/10/19 00:35:27;;;;;;;38.6;19.7;;;;;;;;;;;;;-75
2023/10/19 00:37:39;;;;;;;;;;;;;;;;;;;;;
2023/10/19 00:42:48;;;;;;;;;;;;;;;9.62;100;99235.11;;;;-73
2023/10/19 00:52:12;;;;;;;;;;;;;;;;;;;;;
2023/10/19 00:57:04;;;;;;;;;;;;;;;9.65;100;99220.18;;;;-78
2023/10/19 01:05:38;;;;;;;39;20.9;;;;;;;;;;;;;-77
2023/10/19 01:06:05;;;;;;;;;;;;;;;9.68;100;99222.83;;;;-78
2023/10/19 01:10:46;;;;;;;;;;;;;;;9.71;100;99214.39;;;;-77
2023/10/19 01:19:06;;;;;;;;;;;;;;;9.78;100;99210.77;;;;-76
2023/10/19 01:23:50;;;;;;;;;;;;;;;9.82;100;99199.64;;;;-77
2023/10/19 01:29:02;;;;;;;;;;;;;;;;;;;;;
2023/10/19 01:34:00;;;;;;;;;;;;;;;9.96;100;99200.03;;;;-76
2023/10/19 01:38:53;;;;;;;;;;;;;;;9.99;100;99196.95;;;;-76
2023/10/19 01:44:04;;;;;;;;;;;;;;;10.03;100;99184.77;;;;-77
2023/10/19 01:48:53;;;;;;;;;;;;;;;10.07;100;99172.3;;;;-75
2023/10/19 01:54:07;;;;;;;;;;;;;;;10.12;100;99188.05;;;;-77
2023/10/19 02:07:08;;;;;;;;;;;;;;;10.27;100;99181.28;;;;-76
2023/10/19 02:11:58;;;;;;;;;;;;;;;;;;;;;
2023/10/19 02:17:03;;;;;;;;;;;;;;;10.44;100;99170.41;;;;-77
2023/10/19 02:27:02;;;;;;;;;;;;;;;10.55;100;99157.05;;;;-77
2023/10/19 02:32:06;;;;;;;;;;;;;;;;;;;;;
2023/10/19 02:35:21;;;;;;;85;32.5;;;;;;;;;;;;;-77
2023/10/19 02:36:53;;;;;;;;;;;;;;;10.78;100;99148.02;;;;-77
2023/10/19 02:41:53;;;;;;;;;;;;;;;10.84;100;99144.51;;;;-76
2023/10/19 02:46:50;;;;;;;;;;;;;;;10.89;100;99137.5;;;;-77
2023/10/19 02:52:03;;;;;;;;;;;;;;;10.97;100;99136.48;;;;-78
2023/10/19 02:56:59;;;;;;;;;;;;;;;;;;;;;
2023/10/19 03:01:44;;;;;;;;;;;;;;;11.16;100;99132.89;;;;-76
2023/10/19 03:05:14;;;;;;;106.9;36.2;;;;;;;;;;;;;-75
2023/10/19 03:06:45;;;;;;;;;;;;;;;11.27;100;99127.56;;;;-77
2023/10/19 03:11:47;;;;;;;;;;;;;;;11.36;100;99121.8;;;;-76
2023/10/19 03:16:45;;;;;;;;;;;;;;;11.46;100;99122.52;;;;-76
2023/10/19 03:21:48;;;;;;;;;;;;;;;11.59;100;99120.22;;;;-77
2023/10/19 03:26:48;;;;;;;;;;;;;;;11.67;100;99114.22;;;;-78
2023/10/19 03:31:47;;;;;;;;;;;;;;;11.69;100;99089.92;;;;-76
2023/10/19 03:35:15;;;;;;;95.6;33;;;;;;;;;;;;;-76
2023/10/19 03:36:43;;;;;;;;;;;;;;;11.61;100;99067.44;;;;-78
2023/10/19 03:41:44;;;;;;;;;;;;;;;11.95;100;99107.02;;;;-75
2023/10/19 03:46:52;;;;;;;;;;;;;;;12.07;100;99111.02;;;;-80
2023/10/19 03:51:58;;;;;;;;;;;;;;;12.17;100;99110.13;;;;-76
2023/10/19 03:56:44;;;;;;;;;;;;;;;12.27;100;99103.5;;;;-75
2023/10/19 04:01:52;;;;;;;;;;;;;;;12.37;100;99096.33;;;;-76
2023/10/19 04:05:14;;;;;;;75.4;25.5;;;;;;;;;;;;;-75
2023/10/19 04:06:47;;;;;;;;;;;;;;;12.46;100;99087.36;;;;-75
2023/10/19 04:11:51;;;;;;;;;;;;;;;12.52;100;99092.07;;;;-77
2023/10/19 04:16:43;;;;;;;;;;;;;;;12.57;100;99095.88;;;;-77
2023/10/19 04:21:46;;;;;;;;;;;;;;;12.56;100;99093.29;;;;-76
2023/10/19 04:26:45;;;;;;;;;;;;;;;12.55;100;99097.94;;;;-76
2023/10/19 04:31:49;;;;;;;;;;;;;;;12.5;100;99094.34;;;;-77
2023/10/19 04:35:21;;;;;;;34.6;14.6;;;;;;;;;;;;;-75
2023/10/19 04:36:43;;;;;;;;;;;;;;;12.37;100;99090.52;;;;-77
2023/10/19 04:41:45;;;;;;;;;;;;;;;12.45;100;99094.98;;;;-77
2023/10/19 04:46:46;;;;;;;;;;;;;;;12.48;100;99094.41;;;;-77
2023/10/19 04:51:45;;;;;;;;;;;;;;;12.52;100;99093.23;;;;-75
2023/10/19 04:56:43;;;;;;;;;;;;;;;12.62;100;99090.82;;;;-76
2023/10/19 05:01:42;;;;;;;;;;;;;;;12.72;100;99094.97;;;;-76
2023/10/19 05:05:17;;;;;;;35.6;14.9;;;;;;;;;;;;;-77
2023/10/19 05:06:44;;;;;;;;;;;;;;;12.79;100;99092.53;;;;-75
2023/10/19 05:11:44;;;;;;;;;;;;;;;12.87;100;99100.8;;;;-76
2023/10/19 05:16:42;;;;;;;;;;;;;;;12.89;100;99105.17;;;;-75
2023/10/19 05:21:43;;;;;;;;;;;;;;;12.96;100;99110.8;;;;-76
2023/10/19 05:26:46;;;;;;;;;;;;;;;12.96;100;99113.55;;;;-75
2023/10/19 05:31:42;;;;;;;;;;;;;;;13.01;100;99124.5;;;;-76
2023/10/19 05:35:22;;;;;;;19.8;8.2;;;;;;;;;;;;;-76
2023/10/19 05:36:46;;;;;;;;;;;;;;;13;100;99122.88;;;;-75
2023/10/19 05:41:42;;;;;;;;;;;;;;;13.01;100;99123.86;;;;-76
2023/10/19 05:46:43;;;;;;;;;;;;;;;13.02;100;99132.86;;;;-76
2023/10/19 05:51:44;;;;;;;;;;;;;;;13.03;100;99133.78;;;;-76
2023/10/19 05:56:43;;;;;;;;;;;;;;;13.06;100;99133.44;;;;-76
2023/10/19 06:01:46;;;;;;;;;;;;;;;13.05;100;99129.33;;;;-76
2023/10/19 06:05:20;;;;;;;9.7;4.3;;;;;;;;;;;;;-75
2023/10/19 06:06:43;;;;;;;;;;;;;;;13.05;100;99134.14;;;;-75
2023/10/19 06:11:43;;;;;;;;;;;;;;;13.09;100;99132.44;;;;-79
2023/10/19 06:16:42;;;;;;;;;;;;;;;13.13;100;99129.56;;;;-76
2023/10/19 06:21:43;;;;;;;;;;;;;;;13.13;100;99121.77;;;;-76
2023/10/19 06:26:43;;;;;;;;;;;;;;;13.18;100;99137.72;;;;-75
2023/10/19 06:31:43;;;;;;;;;;;;;;;13.17;100;99149.48;;;;-78
2023/10/19 06:35:22;;;;;;;9.3;2.5;;;;;;;;;;;;;-75
2023/10/19 06:36:42;;;;;;;;;;;;;;;13.18;100;99141.11;;;;-76
2023/10/19 06:41:43;;;;;;;;;;;;;;;13.11;100;99145.47;;;;-75
2023/10/19 06:46:43;;;;;;;;;;;;;;;13.08;100;99143.73;;;;-75
2023/10/19 06:51:43;;;;;;;;;;;;;;;13.03;100;99147.05;;;;-76
2023/10/19 06:56:45;;;;;;;;;;;;;;;13.02;100;99160.31;;;;-75
2023/10/19 07:01:43;;;;;;;;;;;;;;;13.04;100;99167.08;;;;-75
2023/10/19 07:05:25;;;;;;;11.5;2.9;;;;;;;;;;;;;-76
2023/10/19 07:06:45;;;;;;;;;;;;;;;13.07;100;99175.64;;;;-75
2023/10/19 07:11:44;;;;;;;;;;;;;;;13.11;100;99185.88;;;;-71
2023/10/19 07:16:43;;;;;;;;;;;;;;;13.18;100;99191.69;;;;-74
2023/10/19 07:21:43;;;;;;;;;;;;;;;13.23;100;99187.58;;;;-73
2023/10/19 07:26:53;;;;;;;;;;;;;;;13.29;100;99188.63;;;;-73
2023/10/19 07:31:43;;;;;;;;;;;;;;;13.34;100;99198.77;;;;-72
2023/10/19 07:35:26;;;;;;;11.5;3.1;;;;;;;;;;;;;-71
2023/10/19 07:36:43;;;;;;;;;;;;;;;13.36;100;99186.52;;;;-72
2023/10/19 07:41:43;;;;;;;;;;;;;;;13.43;100;99198.56;;;;-73
2023/10/19 07:46:42;;;;;;;;;;;;;;;13.49;100;99210.42;;;;-72
2023/10/19 07:51:42;;;;;;;;;;;;;;;13.56;100;99211.42;;;;-72
2023/10/19 07:56:43;;;;;;;;;;;;;;;13.63;100;99215.51;;;;-73
2023/10/19 08:01:52;;;;;;;;;;;;;;;13.68;100;99216.27;;;;-71
2023/10/19 08:05:26;;;;;;;11.8;2.9;;;;;;;;;;;;;-71
2023/10/19 08:06:42;;;;;;;;;;;;;;;13.71;100;99222.79;;;;-72
2023/10/19 08:11:42;;;;;;;;;;;;;;;13.73;100;99226.23;;;;-72
2023/10/19 08:16:43;;;;;;;;;;;;;;;13.78;100;99227.42;;;;-73
2023/10/19 08:21:42;;;;;;;;;;;;;;;13.84;100;99220.66;;;;-73
2023/10/19 08:26:43;;;;;;;;;;;;;;;13.87;100;99223.68;;;;-73
2023/10/19 08:31:44;;;;;;;;;;;;;;;13.92;100;99224.83;;;;-71
2023/10/19 08:35:31;;;;;;;11.1;3.1;;;;;;;;;;;;;-72
2023/10/19 08:36:43;;;;;;;;;;;;;;;13.95;100;99227.91;;;;-73
2023/10/19 08:41:43;;;;;;;;;;;;;;;13.95;100;99213.86;;;;-73
2023/10/19 08:46:44;;;;;;;;;;;;;;;13.99;100;99219.75;;;;-76
2023/10/19 08:51:50;;;;;;;;;;;;;;;14.02;100;99221.97;;;;-75
2023/10/19 08:56:45;;;;;;;;;;;;;;;14.07;100;99217.05;;;;-75
2023/10/19 09:01:43;;;;;;;;;;;;;;;14.12;100;99208.41;;;;-76
2023/10/19 09:05:34;;;;;;;12.9;2.9;;;;;;;;;;;;;-79
2023/10/19 09:06:45;;;;;;;;;;;;;;;14.15;100;99204.16;;;;-77
2023/10/19 09:11:43;;;;;;;;;;;;;;;14.22;100;99205.95;;;;-75
2023/10/19 09:16:53;;;;;;;;;;;;;;;14.27;100;99203.66;;;;-75
2023/10/19 09:21:44;;;;;;;;;;;;;;;14.38;100;99185.81;;;;-76
2023/10/19 09:26:43;;;;;;;;;;;;;;;14.48;100;99189.9;;;;-75
2023/10/19 09:31:42;;;;;;;;;;;;;;;14.56;100;99189.19;;;;-76
2023/10/19 09:35:31;;;;;;;11.7;2.9;;;;;;;;;;;;;-75
2023/10/19 09:36:45;;;;;;;;;;;;;;;14.68;100;99185.2;;;;-77
2023/10/19 09:41:43;;;;;;;;;;;;;;;14.87;100;99191.93;;;;-73
2023/10/19 09:46:43;;;;;;;;;;;;;;;15.05;100;99188.88;;;;-75
2023/10/19 09:51:49;;;;;;;;;;;;;;;15.23;100;99188.45;;;;-73
2023/10/19 09:56:47;;;;;;;;;;;;;;;15.33;100;99190.23;;;;-73
2023/10/19 10:01:54;;;;;;;;;;;;;;;15.33;100;99188.64;;;;-74
2023/10/19 10:05:47;;;;;;;13.4;3.4;;;;;;;;;;;;;-73
2023/10/19 10:06:54;;;;;;;;;;;;;;;15.39;100;99191.45;;;;-73
2023/10/19 10:11:45;;;;;;;;;;;;;;;15.37;100;99181.52;;;;-75
2023/10/19 10:16:42;;;;;;;;;;;;;;;15.35;100;99167.78;;;;-73
2023/10/19 10:21:43;;;;;;;;;;;;;;;15.41;100;99171.45;;;;-73
2023/10/19 10:26:53;;;;;;;;;;;;;;;15.48;100;99174.28;;;;-75
2023/10/19 10:31:45;;;;;;;;;;;;;;;15.49;100;99173.11;;;;-74
2023/10/19 10:35:47;;;;;;;15;3.6;;;;;;;;;;;;;-73
2023/10/19 10:37:02;;;;;;;;;;;;;;;15.53;100;99167.95;;;;-74
2023/10/19 10:41:45;;;;;;;;;;;;;;;15.49;100;99169.19;;;;-74
2023/10/19 10:46:45;;;;;;;;;;;;;;;15.45;100;99167.52;;;;-74
2023/10/19 10:52:12;;;;;;;;;;;;;;;15.41;100;99171.28;;;;-81
2023/10/19 10:56:43;;;;;;;;;;;;;;;15.39;100;99166.84;;;;-72
2023/10/19 11:01:44;;;;;;;;;;;;;;;15.36;100;99164.52;;;;-72
2023/10/19 11:05:39;;;;;;;16.2;3.5;;;;;;;;;;;;;-73
2023/10/19 11:06:55;;;;;;;;;;;;;;;15.3;100;99157.84;;;;-75
2023/10/19 11:11:44;;;;;;;;;;;;;;;15.35;100;99148.83;;;;-77
2023/10/19 11:16:43;;;;;;;;;;;;;;;15.47;100;99136.78;;;;-74
2023/10/19 11:21:52;;;;;;;;;;;;;;;15.62;100;99147.16;;;;-77
2023/10/19 11:26:44;;;;;;;;;;;;;;;15.67;100;99151.23;;;;-77
2023/10/19 11:31:45;;;;;;;;;;;;;;;15.71;100;99154.62;;;;-76
2023/10/19 11:35:40;;;;;;;15.5;4.1;;;;;;;;;;;;;-77
2023/10/19 11:36:56;;;;;;;;;;;;;;;15.88;100;99155.41;;;;-75
2023/10/19 11:47:20;;;;;;;;;;;;;;;16.24;100;99149.72;;;;-73
2023/10/19 11:51:55;;;;;;;;;;;;;;;16.25;100;99141.91;;;;-74
2023/10/19 12:02:02;;;;;;;;;;;;;;;16.39;100;99128.36;;;;-74
2023/10/19 12:05:42;;;;;;;14;3.3;;;;;;;;;;;;;-74
2023/10/19 12:07:01;;;;;;;;;;;;;;;16.7;100;99121.65;;;;-74
2023/10/19 12:34:24;;;;;;;;;;;;;;;17.19;100;99094.77;;;;-75
2023/10/19 15:18:24;;;;;;;;;;;;;;;;;;;;;
2023/10/19 17:36:25;;;;;;;21.5;7.5;;;;;;;;;;;;;-85
2023/10/19 18:57:56;;;;;;;;;;;;;;;;;;;;;
2023/10/19 19:09:05;;;;;;;;;;;;;;;13.78;100;98901.21;;;;-77
2023/10/19 19:24:31;;;;;;;;;;;;;;;13.87;100;98901.62;;;;-84
2023/10/19 19:29:33;;;;;;;;;;;;;;;13.94;100;98901.48;;;;-85
2023/10/19 20:26:31;;;;;;;;;;;;;;;14.09;100;98877;;;;-85
2023/10/19 20:31:23;;;;;;;;;;;;;;;14.11;100;98873.92;;;;-84
2023/10/19 20:36:26;;;;;;;;;;;;;;;14.12;100;98864.35;;;;-84
2023/10/19 20:36:50;;;;;;;33.6;15.4;;;;;;;;;;;;;-84
2023/10/19 20:41:29;;;;;;;;;;;;;;;14.15;100;98872.45;;;;-83
2023/10/19 20:51:34;;;;;;;;;;;;;;;14.17;100;98842.48;;;;-84
2023/10/19 20:56:29;;;;;;;;;;;;;;;14.14;100;98828.17;;;;-84
2023/10/19 21:01:29;;;;;;;;;;;;;;;14.08;100;98824.64;;;;-84
2023/10/19 21:06:42;;;;;;;;;;;;;;;14.05;100;98820.69;;;;-85
2023/10/19 21:07:40;;;;;;;38.1;18;;;;;;;;;;;;;-85
2023/10/19 21:13:12;;;;;;;;;;;;;;;14.04;100;98812.92;;;;-84
2023/10/19 21:18:07;;;;;;;;;;;;;;;14;100;98805.98;;;;-84
2023/10/19 22:16:41;;;;;;;;;;;;;;;13.24;100;98815.28;;;;-84
2023/10/19 22:21:48;;;;;;;;;;;;;;;13.18;100;98806.64;;;;-84
2023/10/19 22:49:12;;;;;;;;;;;;;;;12.85;100;98756.94;;;;-84
2023/10/19 23:18:58;;;;;;;;;;;;;;;12.52;100;98787.62;;;;-83
